CheckWX is a tool to help pilots better visualize weather data.  It is not intended as a substitute for an official pre-flight weather briefing.

06:47:16 UTC

GCRR METAR
Lanzarote Airport
Lanzarote Island, Spain
Current

17 mins ago

GCRR 210630Z 01016KT 9999 FEW018 OVC025 19/16 Q1015
Observed
May-21 @ 06:30 UTC
Wind
  • 010° at 16 KTS
Visibility
10,000+ meters
Flight Rules
MVFR
Cloud Levels
  • Few at 1,800' AGL
  • Overcast at 2,500' AGL
Temperature
19°C / 66°F
Dewpoint
16°C / 61°F
Humidity
83%
Altimeter
29.97" Hg
Pressure
1014.92 hPa
Previous

47 mins ago

GCRR 210600Z 01017KT 9999 FEW018 OVC028 19/15 Q1015
Observed
May-21 @ 06:00 UTC
Wind
  • 010° at 17 KTS
Visibility
10,000+ meters
Flight Rules
MVFR
Cloud Levels
  • Few at 1,800' AGL
  • Overcast at 2,800' AGL
Temperature
19°C / 66°F
Dewpoint
15°C / 59°F
Humidity
78%
Altimeter
29.97" Hg
Pressure
1014.92 hPa
Previous

1 hour ago

GCRR 210530Z 02015KT 9999 BKN028 20/14 Q1015
Observed
May-21 @ 05:30 UTC
Wind
  • 020° at 15 KTS
Visibility
10,000+ meters
Flight Rules
MVFR
Cloud Levels
  • Broken at 2,800' AGL
Temperature
20°C / 68°F
Dewpoint
14°C / 57°F
Humidity
69%
Altimeter
29.97" Hg
Pressure
1014.92 hPa